Time;durP1;ratioP1;P1;durP2;ratioP2;P2;SDS_P1;SDS_P2;PMS_P1;PMS_P2;Temp;Humidity;BMP_temperature;BMP_pressure;BME280_temperature;BME280_humidity;BME280_pressure;Samples;Min_cycle;Max_cycle;Signal;HPM_P1;HPM_P2
2020/12/17 00:00:31;;;;;;;11.80;10.23;;;9.10;99.90;;;;;;5042711;28;20202;-79
2020/12/17 00:02:57;;;;;;;10.83;9.80;;;9.10;99.90;;;;;;5043429;28;20202;-82
2020/12/17 00:05:25;;;;;;;11.37;10.20;;;9.10;99.90;;;;;;5042302;28;20198;-81
2020/12/17 00:07:51;;;;;;;10.50;9.40;;;9.10;99.90;;;;;;5042904;28;20259;-79
2020/12/17 00:10:18;;;;;;;11.93;10.27;;;9.10;99.90;;;;;;5043434;28;20209;-80
2020/12/17 00:12:46;;;;;;;11.30;9.23;;;9.10;99.90;;;;;;5042921;28;20201;-78
2020/12/17 00:15:14;;;;;;;11.33;9.37;;;9.10;99.90;;;;;;5041476;28;20217;-85
2020/12/17 00:17:41;;;;;;;10.50;9.17;;;9.10;99.90;;;;;;5042351;28;20529;-81
2020/12/17 00:20:07;;;;;;;12.33;9.60;;;9.20;99.90;;;;;;5041921;28;20225;-82
2020/12/17 00:22:35;;;;;;;11.33;8.63;;;9.20;99.90;;;;;;5025326;28;20198;-84
2020/12/17 00:25:03;;;;;;;10.53;9.43;;;9.20;99.90;;;;;;5025347;28;20202;-79
2020/12/17 00:27:29;;;;;;;10.10;9.07;;;9.20;99.90;;;;;;5025702;28;20222;-79
2020/12/17 00:29:55;;;;;;;14.63;9.20;;;9.20;99.90;;;;;;5024511;28;20206;-85
2020/12/17 00:32:22;;;;;;;11.37;10.10;;;9.20;99.90;;;;;;5023004;28;20202;-80
2020/12/17 00:34:48;;;;;;;10.80;9.10;;;9.20;99.90;;;;;;5022093;28;20830;-82
2020/12/17 00:37:15;;;;;;;10.53;9.43;;;9.20;99.90;;;;;;5025259;28;20221;-81
2020/12/17 00:39:42;;;;;;;11.30;9.90;;;9.20;99.90;;;;;;5026108;28;20219;-83
2020/12/17 00:42:08;;;;;;;9.90;8.90;;;9.20;99.90;;;;;;5024767;28;20225;-80
2020/12/17 00:44:35;;;;;;;9.80;8.80;;;9.20;99.90;;;;;;5025594;28;20206;-82
2020/12/17 00:47:01;;;;;;;12.90;9.63;;;9.20;99.90;;;;;;5024802;28;20226;-80
2020/12/17 00:49:27;;;;;;;10.50;9.27;;;9.20;99.90;;;;;;5025320;28;20198;-82
2020/12/17 00:51:59;;;;;;;10.67;9.57;;;9.20;99.90;;;;;;5026664;28;20198;-87
2020/12/17 00:54:25;;;;;;;10.87;9.67;;;9.30;99.90;;;;;;5025723;28;20202;-86
2020/12/17 00:56:53;;;;;;;11.00;9.80;;;9.20;99.90;;;;;;5024663;28;20222;-80
2020/12/17 00:59:19;;;;;;;11.13;10.03;;;9.20;99.90;;;;;;5024869;28;20533;-82
2020/12/17 01:01:45;;;;;;;12.53;10.27;;;9.30;99.90;;;;;;5025951;28;20203;-80
2020/12/17 01:04:12;;;;;;;10.57;9.47;;;9.30;99.90;;;;;;5026567;28;20211;-84
2020/12/17 01:06:38;;;;;;;13.13;10.10;;;9.20;99.90;;;;;;5028080;28;20206;-86
2020/12/17 01:09:04;;;;;;;11.33;9.83;;;9.20;99.90;;;;;;5027395;28;20191;-82
2020/12/17 01:11:31;;;;;;;13.30;10.30;;;9.30;99.90;;;;;;5028295;28;20675;-82
2020/12/17 01:13:59;;;;;;;11.93;10.13;;;9.30;99.90;;;;;;5027632;28;20199;-79
2020/12/17 01:16:25;;;;;;;13.20;10.97;;;9.30;99.90;;;;;;5030564;28;20233;-82
2020/12/17 01:18:52;;;;;;;11.93;10.63;;;9.30;99.90;;;;;;5030207;28;20756;-81
2020/12/17 01:21:18;;;;;;;11.87;10.63;;;9.30;99.90;;;;;;5041447;28;20201;-80
2020/12/17 01:23:45;;;;;;;12.43;10.23;;;9.30;99.90;;;;;;5047732;28;20198;-84
2020/12/17 01:26:11;;;;;;;15.07;12.47;;;9.30;99.90;;;;;;5046973;28;20202;-80
2020/12/17 01:28:39;;;;;;;11.17;10.03;;;9.20;99.90;;;;;;5045632;28;20218;-79
2020/12/17 01:31:07;;;;;;;11.40;10.20;;;9.20;99.90;;;;;;5045868;28;20210;-87
2020/12/17 01:33:34;;;;;;;13.60;11.40;;;9.20;99.90;;;;;;5047522;28;20212;-87
2020/12/17 01:36:02;;;;;;;14.00;11.73;;;9.20;99.90;;;;;;5046315;28;20545;-81
2020/12/17 01:38:28;;;;;;;14.43;11.53;;;9.30;99.90;;;;;;5049161;28;20198;-86
2020/12/17 01:40:54;;;;;;;11.50;10.20;;;9.30;99.90;;;;;;5050055;28;20206;-86
2020/12/17 01:43:21;;;;;;;12.23;11.03;;;9.30;99.90;;;;;;5049340;28;20198;-78
2020/12/17 01:45:47;;;;;;;12.37;10.97;;;9.30;99.90;;;;;;5047809;28;20202;-82
2020/12/17 01:48:16;;;;;;;13.90;11.50;;;9.30;99.90;;;;;;5049458;28;20202;-86
2020/12/17 01:50:43;;;;;;;13.13;10.83;;;9.20;99.90;;;;;;5049864;28;20213;-86
2020/12/17 01:53:10;;;;;;;13.27;11.27;;;9.30;99.90;;;;;;5046709;28;20210;-79
2020/12/17 01:55:36;;;;;;;13.03;11.50;;;9.20;99.90;;;;;;5047133;28;20240;-79
2020/12/17 01:58:05;;;;;;;13.87;12.43;;;9.20;99.90;;;;;;5045903;28;20222;-78
2020/12/17 02:00:35;;;;;;;13.73;12.17;;;9.30;99.90;;;;;;5046360;28;20213;-79
2020/12/17 02:03:02;;;;;;;12.60;10.77;;;9.20;99.90;;;;;;5046842;28;20856;-87
2020/12/17 02:05:29;;;;;;;14.30;12.33;;;9.20;99.90;;;;;;5045206;28;20206;-79
2020/12/17 02:07:57;;;;;;;13.10;11.70;;;9.20;99.90;;;;;;5047059;28;20194;-79
2020/12/17 02:10:24;;;;;;;13.97;12.07;;;9.30;99.90;;;;;;5045723;28;20264;-79
2020/12/17 02:12:51;;;;;;;14.07;12.37;;;9.20;99.90;;;;;;5046467;28;20209;-85
2020/12/17 02:15:18;;;;;;;16.07;13.20;;;9.20;99.90;;;;;;5046528;28;20252;-81
2020/12/17 02:17:45;;;;;;;15.13;12.73;;;9.20;99.90;;;;;;5045356;28;20236;-84
2020/12/17 02:20:12;;;;;;;14.57;12.43;;;9.20;99.90;;;;;;5046056;28;20209;-81
2020/12/17 02:22:40;;;;;;;15.07;13.47;;;9.30;99.90;;;;;;5047239;28;20202;-87
2020/12/17 02:25:09;;;;;;;14.80;12.67;;;9.20;99.90;;;;;;5046043;28;20236;-78
2020/12/17 02:27:37;;;;;;;16.37;14.63;;;9.20;99.90;;;;;;5044582;28;20586;-79
2020/12/17 02:30:04;;;;;;;18.47;14.23;;;9.30;99.90;;;;;;5046822;28;20198;-78
2020/12/17 02:32:30;;;;;;;16.23;14.53;;;9.30;99.90;;;;;;5045965;28;20206;-81
2020/12/17 02:34:57;;;;;;;15.07;13.47;;;9.20;99.90;;;;;;5045802;28;20234;-79
2020/12/17 02:37:23;;;;;;;14.20;12.70;;;9.20;99.90;;;;;;5046600;28;20205;-78
2020/12/17 02:39:49;;;;;;;16.97;14.27;;;9.20;99.90;;;;;;5045473;28;20202;-80
2020/12/17 02:42:17;;;;;;;15.00;12.80;;;9.20;99.90;;;;;;5046428;28;20221;-84
2020/12/17 02:44:43;;;;;;;15.70;14.10;;;9.20;99.90;;;;;;5046919;28;20201;-79
2020/12/17 02:47:09;;;;;;;15.97;14.13;;;9.30;99.90;;;;;;5045789;28;20267;-78
2020/12/17 02:49:36;;;;;;;16.13;14.43;;;9.30;99.90;;;;;;5044834;28;20217;-79
2020/12/17 02:52:03;;;;;;;18.30;14.63;;;9.20;99.90;;;;;;5045988;28;20209;-87
2020/12/17 02:54:29;;;;;;;16.93;14.27;;;9.30;99.90;;;;;;5046931;28;20210;-85
2020/12/17 02:56:55;;;;;;;18.40;14.23;;;9.30;99.90;;;;;;5044496;28;20497;-85
2020/12/17 02:59:23;;;;;;;14.80;12.77;;;9.30;99.90;;;;;;5045183;28;20202;-81
2020/12/17 03:01:50;;;;;;;16.67;13.97;;;9.30;99.90;;;;;;5045880;28;20925;-85
2020/12/17 03:04:16;;;;;;;15.63;13.93;;;9.30;99.90;;;;;;5045045;28;20205;-86
2020/12/17 03:06:42;;;;;;;15.87;13.60;;;9.30;99.90;;;;;;5045579;28;20197;-85
2020/12/17 03:09:08;;;;;;;16.30;13.50;;;9.30;99.90;;;;;;5045058;28;20578;-80
2020/12/17 03:11:35;;;;;;;16.10;13.37;;;9.30;99.90;;;;;;5044995;28;20679;-80
2020/12/17 03:14:01;;;;;;;15.47;12.33;;;9.30;99.90;;;;;;5046419;28;20335;-86
2020/12/17 03:16:28;;;;;;;16.87;13.93;;;9.30;99.90;;;;;;5045451;28;20683;-78
2020/12/17 03:18:56;;;;;;;15.30;13.13;;;9.30;99.90;;;;;;5045455;28;20206;-79
2020/12/17 03:21:22;;;;;;;15.83;13.27;;;9.30;99.90;;;;;;5044739;28;20229;-80
2020/12/17 03:23:49;;;;;;;19.20;14.13;;;9.30;99.90;;;;;;5047576;28;20289;-80
2020/12/17 03:26:15;;;;;;;17.43;13.90;;;9.30;99.90;;;;;;5047678;28;20210;-78
2020/12/17 03:28:41;;;;;;;14.57;13.03;;;9.30;99.90;;;;;;5046455;28;20226;-79
2020/12/17 03:31:07;;;;;;;17.83;14.10;;;9.30;99.90;;;;;;5044204;28;20213;-79
2020/12/17 03:33:35;;;;;;;18.37;14.53;;;9.30;99.90;;;;;;5044652;28;20218;-84
2020/12/17 03:36:01;;;;;;;19.13;15.30;;;9.30;99.90;;;;;;5045483;28;20233;-87
2020/12/17 03:38:27;;;;;;;17.47;14.10;;;9.30;99.90;;;;;;5044581;28;20779;-79
2020/12/17 03:40:54;;;;;;;18.60;14.43;;;9.40;99.90;;;;;;5045560;28;20916;-79
2020/12/17 03:43:20;;;;;;;16.90;13.73;;;9.30;99.90;;;;;;5044707;28;20205;-83
2020/12/17 03:45:46;;;;;;;19.33;13.93;;;9.30;99.90;;;;;;5045182;28;20205;-87
2020/12/17 03:48:13;;;;;;;17.50;12.73;;;9.30;99.90;;;;;;5045572;28;20197;-86
2020/12/17 03:50:40;;;;;;;19.87;13.93;;;9.30;99.90;;;;;;5045093;28;20206;-83
2020/12/17 03:53:06;;;;;;;21.47;15.30;;;9.40;99.90;;;;;;5044035;28;21042;-85
2020/12/17 03:55:32;;;;;;;20.00;14.83;;;9.40;99.90;;;;;;5046143;28;20861;-85
2020/12/17 03:57:59;;;;;;;25.03;16.43;;;9.40;99.90;;;;;;5046645;28;20234;-79
2020/12/17 04:00:25;;;;;;;20.23;15.83;;;9.30;99.90;;;;;;5045170;28;20209;-79
2020/12/17 04:02:52;;;;;;;23.07;16.40;;;9.30;99.90;;;;;;5045426;28;20206;-80
2020/12/17 04:05:18;;;;;;;19.83;15.10;;;9.30;99.90;;;;;;5044682;28;20213;-87
2020/12/17 04:07:45;;;;;;;19.63;15.07;;;9.40;99.90;;;;;;5044851;28;20201;-80
2020/12/17 04:10:11;;;;;;;20.77;14.20;;;9.40;99.90;;;;;;5044173;28;20213;-79
2020/12/17 04:12:38;;;;;;;18.80;14.40;;;9.30;99.90;;;;;;5043784;28;20205;-79
2020/12/17 04:15:04;;;;;;;17.33;14.77;;;9.30;99.90;;;;;;5043055;28;20755;-82
2020/12/17 04:17:30;;;;;;;22.97;14.70;;;9.40;99.90;;;;;;5043468;28;20233;-87
2020/12/17 04:19:57;;;;;;;20.47;14.40;;;9.40;99.90;;;;;;5045901;28;20255;-87
2020/12/17 04:22:23;;;;;;;19.77;14.00;;;9.40;99.90;;;;;;5049719;28;20210;-87
2020/12/17 04:24:50;;;;;;;20.73;14.20;;;9.40;99.90;;;;;;5050119;28;20252;-87
2020/12/17 04:27:16;;;;;;;19.77;14.17;;;9.40;99.90;;;;;;5049851;28;20217;-86
2020/12/17 04:29:42;;;;;;;18.87;15.07;;;9.40;99.90;;;;;;5049691;28;20198;-87
2020/12/17 04:32:09;;;;;;;22.87;16.10;;;9.40;99.90;;;;;;5049341;28;20198;-85
2020/12/17 04:34:35;;;;;;;24.40;16.43;;;9.40;99.90;;;;;;5049543;28;20198;-87
2020/12/17 04:37:01;;;;;;;22.30;16.33;;;9.40;99.90;;;;;;5048315;28;20524;-80
2020/12/17 04:39:28;;;;;;;23.10;15.17;;;9.40;99.90;;;;;;5049628;28;20198;-78
2020/12/17 04:41:57;;;;;;;23.40;15.33;;;9.40;99.90;;;;;;5049872;28;20209;-87
2020/12/17 04:44:23;;;;;;;22.87;16.13;;;9.40;99.90;;;;;;5047946;28;20206;-86
2020/12/17 04:46:55;;;;;;;25.57;15.17;;;9.30;99.90;;;;;;5049347;28;20190;-86
2020/12/17 04:49:26;;;;;;;22.03;16.77;;;9.40;99.90;;;;;;5048900;28;20226;-86
2020/12/17 04:51:56;;;;;;;25.67;15.87;;;9.40;99.90;;;;;;5052626;28;20198;-86
2020/12/17 04:54:23;;;;;;;25.77;16.70;;;9.40;99.90;;;;;;5052553;28;20195;-85
2020/12/17 04:56:59;;;;;;;26.53;16.70;;;9.30;99.90;;;;;;5052007;28;20222;-84
2020/12/17 04:59:38;;;;;;;23.57;16.73;;;9.30;99.90;;;;;;5052280;28;20612;-86
2020/12/17 05:02:07;;;;;;;24.43;16.77;;;9.30;99.90;;;;;;5050852;28;20205;-80
2020/12/17 05:04:36;;;;;;;23.37;17.23;;;9.30;99.90;;;;;;5045812;28;20237;-80
2020/12/17 05:07:04;;;;;;;30.10;16.90;;;9.30;99.90;;;;;;5049794;28;20228;-86
2020/12/17 05:09:31;;;;;;;25.90;17.47;;;9.30;99.90;;;;;;5050311;28;20229;-79
2020/12/17 05:11:58;;;;;;;26.33;17.67;;;9.30;99.90;;;;;;5047577;28;20202;-79
2020/12/17 05:14:25;;;;;;;27.27;19.10;;;9.30;99.90;;;;;;5045706;28;20655;-81
2020/12/17 05:16:51;;;;;;;32.17;20.40;;;9.40;99.90;;;;;;5045101;28;20230;-87
2020/12/17 05:19:17;;;;;;;27.23;19.33;;;9.40;99.90;;;;;;5047941;28;20194;-78
2020/12/17 05:21:44;;;;;;;24.03;17.43;;;9.40;99.90;;;;;;5031436;28;20217;-78
2020/12/17 05:24:10;;;;;;;26.53;19.53;;;9.40;99.90;;;;;;5025051;28;20202;-79
2020/12/17 05:26:38;;;;;;;29.33;18.63;;;9.30;99.90;;;;;;5026778;28;20209;-79
2020/12/17 05:29:05;;;;;;;30.07;19.53;;;9.30;99.90;;;;;;5026836;28;20217;-78
2020/12/17 05:31:33;;;;;;;27.43;19.40;;;9.30;99.90;;;;;;5024886;28;20210;-78
2020/12/17 05:34:02;;;;;;;28.20;20.00;;;9.30;99.90;;;;;;5025394;28;20294;-80
2020/12/17 05:36:30;;;;;;;30.10;20.33;;;9.30;99.90;;;;;;5025794;28;20238;-78
2020/12/17 05:39:03;;;;;;;28.93;19.73;;;9.30;99.90;;;;;;5024617;28;20321;-79
2020/12/17 05:41:30;;;;;;;29.47;20.77;;;9.30;99.90;;;;;;5025213;28;20206;-79
2020/12/17 05:44:07;;;;;;;36.13;21.90;;;9.30;99.90;;;;;;5026211;28;20214;-80
2020/12/17 05:46:36;;;;;;;33.23;21.40;;;9.30;99.90;;;;;;5026761;28;20544;-81
2020/12/17 05:49:16;;;;;;;30.60;21.00;;;9.30;99.90;;;;;;5024873;28;20206;-79
2020/12/17 05:51:44;;;;;;;29.43;21.03;;;9.40;99.90;;;;;;5025797;28;20256;-80
2020/12/17 05:54:11;;;;;;;29.50;20.90;;;9.30;99.90;;;;;;5025319;28;20321;-79
2020/12/17 05:56:38;;;;;;;29.30;20.20;;;9.40;99.90;;;;;;5024270;28;20223;-78
2020/12/17 05:59:06;;;;;;;33.80;20.47;;;9.30;99.90;;;;;;5024999;28;20201;-79
2020/12/17 06:01:32;;;;;;;34.83;21.47;;;9.30;99.90;;;;;;5025811;28;20761;-78
2020/12/17 06:04:13;;;;;;;28.20;18.73;;;9.30;99.90;;;;;;5024291;28;20233;-78
2020/12/17 06:06:44;;;;;;;28.60;18.40;;;9.30;99.90;;;;;;5023669;28;20230;-80
2020/12/17 06:09:19;;;;;;;26.17;18.57;;;9.30;99.90;;;;;;5025225;28;20203;-79
2020/12/17 06:11:46;;;;;;;26.93;18.00;;;9.30;99.90;;;;;;5024305;28;20188;-79
2020/12/17 06:14:12;;;;;;;28.07;18.37;;;9.30;99.90;;;;;;5023262;28;20210;-79
2020/12/17 06:16:43;;;;;;;23.57;16.10;;;9.30;99.90;;;;;;5024066;28;20222;-78
2020/12/17 06:19:13;;;;;;;24.47;16.73;;;9.30;99.90;;;;;;5024412;28;20273;-78
2020/12/17 06:21:41;;;;;;;21.83;15.13;;;9.20;99.90;;;;;;5037112;28;20285;-78
2020/12/17 06:24:07;;;;;;;22.43;15.90;;;9.20;99.90;;;;;;5043506;28;20210;-79
2020/12/17 06:26:39;;;;;;;21.83;14.83;;;9.20;99.90;;;;;;5043250;28;20194;-85
2020/12/17 06:29:17;;;;;;;23.27;15.33;;;9.20;99.90;;;;;;5043028;28;20686;-80
2020/12/17 06:31:54;;;;;;;17.83;13.53;;;9.20;99.90;;;;;;5046066;28;20205;-84
2020/12/17 06:34:22;;;;;;;21.00;13.53;;;9.20;99.90;;;;;;5044992;28;20210;-79
2020/12/17 06:36:55;;;;;;;17.10;12.83;;;9.20;99.90;;;;;;5044133;28;20242;-79
2020/12/17 06:39:22;;;;;;;16.83;12.13;;;9.20;99.90;;;;;;5043475;28;20229;-80
2020/12/17 06:41:48;;;;;;;17.30;11.53;;;9.20;99.90;;;;;;5043126;28;20206;-79
2020/12/17 06:44:31;;;;;;;17.17;12.17;;;9.20;99.90;;;;;;5044185;28;20201;-78
2020/12/17 06:46:59;;;;;;;17.67;11.37;;;9.20;99.90;;;;;;5043780;28;20196;-78
2020/12/17 06:49:27;;;;;;;12.50;9.77;;;9.20;99.90;;;;;;5042644;28;20209;-81
2020/12/17 06:52:05;;;;;;;11.10;9.23;;;9.20;99.90;;;;;;5048224;28;20202;-82
2020/12/17 06:54:38;;;;;;;10.30;9.00;;;9.10;99.90;;;;;;5047323;28;20202;-77
2020/12/17 06:57:06;;;;;;;12.93;8.33;;;9.20;99.90;;;;;;5042724;28;20237;-79
2020/12/17 06:59:33;;;;;;;11.57;7.63;;;9.10;99.90;;;;;;5043007;28;20193;-79
2020/12/17 07:01:59;;;;;;;11.87;7.60;;;9.10;99.90;;;;;;5045801;28;20201;-81
2020/12/17 07:04:36;;;;;;;9.57;7.17;;;9.10;99.90;;;;;;5042685;28;20220;-80
2020/12/17 07:07:14;;;;;;;7.13;5.70;;;9.10;99.90;;;;;;5041815;28;20646;-81
2020/12/17 07:09:40;;;;;;;9.00;5.77;;;9.10;99.90;;;;;;5041997;28;20766;-79
2020/12/17 07:12:09;;;;;;;6.40;4.60;;;9.10;99.90;;;;;;5043986;28;20202;-78
2020/12/17 07:14:36;;;;;;;5.07;4.47;;;9.00;99.90;;;;;;5042014;28;20202;-79
2020/12/17 07:17:04;;;;;;;4.60;3.57;;;9.00;99.90;;;;;;5042575;28;20224;-84
2020/12/17 07:19:37;;;;;;;5.27;3.80;;;8.90;99.90;;;;;;5044476;28;20209;-82
2020/12/17 07:22:07;;;;;;;4.07;3.30;;;8.90;99.90;;;;;;5026136;28;20211;-79
2020/12/17 07:24:35;;;;;;;4.10;3.33;;;8.90;99.90;;;;;;5022586;28;20199;-80
2020/12/17 07:27:06;;;;;;;3.70;3.10;;;8.80;99.90;;;;;;5022146;28;20222;-80
2020/12/17 07:29:50;;;;;;;3.43;2.63;;;8.80;99.90;;;;;;5022238;28;20195;-80
2020/12/17 07:32:24;;;;;;;2.87;2.50;;;8.70;99.90;;;;;;5019447;28;20210;-79
2020/12/17 07:34:51;;;;;;;3.77;2.37;;;8.70;99.90;;;;;;5021312;28;20681;-79
2020/12/17 07:37:50;;;;;;;4.07;2.70;;;8.70;99.90;;;;;;5020576;28;20270;-79
2020/12/17 07:40:35;;;;;;;3.70;2.73;;;8.70;99.90;;;;;;4922272;29;20261;-83
2020/12/17 07:43:06;;;;;;;2.57;2.37;;;8.70;99.90;;;;;;5014118;28;20218;-80
2020/12/17 07:45:50;;;;;;;2.73;2.47;;;8.70;99.90;;;;;;5023065;28;20191;-78
2020/12/17 08:02:24;;;;;;;7.27;4.00;;;8.80;99.90;;;;;;4727253;29;20216;-84
2020/12/17 08:04:53;;;;;;;6.60;5.23;;;8.80;99.90;;;;;;4833988;29;20736;-85
2020/12/17 08:07:19;;;;;;;7.43;5.60;;;8.80;99.90;;;;;;4892661;29;20540;-84
2020/12/17 08:09:57;;;;;;;8.70;6.70;;;8.90;99.90;;;;;;5012551;28;20214;-85
2020/12/17 08:12:24;;;;;;;9.30;8.27;;;8.90;99.90;;;;;;5023253;28;21040;-84
2020/12/17 08:14:53;;;;;;;10.00;8.50;;;8.90;99.90;;;;;;5026056;28;20202;-80
2020/12/17 08:17:20;;;;;;;11.33;9.07;;;8.90;99.90;;;;;;5025340;28;20251;-85
2020/12/17 08:19:57;;;;;;;11.00;9.23;;;8.90;99.90;;;;;;5025573;28;20209;-84
2020/12/17 08:22:27;;;;;;;10.87;9.40;;;9.00;99.90;;;;;;5022344;28;20206;-81
2020/12/17 08:24:53;;;;;;;11.40;10.20;;;9.00;99.90;;;;;;5026143;28;20214;-83
2020/12/17 08:27:21;;;;;;;11.30;9.50;;;9.00;99.90;;;;;;5028164;28;20229;-82
2020/12/17 08:29:47;;;;;;;12.17;10.20;;;9.10;99.90;;;;;;5028091;28;20210;-83
2020/12/17 08:32:14;;;;;;;13.00;10.47;;;9.10;99.90;;;;;;5027421;28;20217;-79
2020/12/17 08:34:52;;;;;;;13.00;11.00;;;9.20;99.90;;;;;;5026409;28;20225;-81
2020/12/17 08:37:19;;;;;;;12.87;11.27;;;9.20;99.90;;;;;;5024448;28;20248;-80
2020/12/17 08:39:46;;;;;;;13.73;11.17;;;9.20;99.90;;;;;;5027649;28;20214;-79
2020/12/17 08:42:15;;;;;;;13.97;12.47;;;9.20;99.90;;;;;;5028373;28;20965;-77
2020/12/17 08:44:42;;;;;;;18.03;13.00;;;9.20;99.90;;;;;;5027083;28;20260;-78
2020/12/17 08:47:14;;;;;;;16.03;12.27;;;9.30;99.90;;;;;;5027092;28;20199;-85
2020/12/17 08:49:45;;;;;;;15.10;12.67;;;9.30;99.90;;;;;;5029940;28;20214;-77
2020/12/17 08:52:25;;;;;;;15.60;13.23;;;9.30;99.90;;;;;;5034464;28;20190;-77
2020/12/17 08:55:00;;;;;;;19.90;14.57;;;9.40;99.90;;;;;;5030887;28;20944;-87
2020/12/17 08:57:27;;;;;;;19.63;14.10;;;9.40;99.90;;;;;;5036581;28;20596;-77
2020/12/17 08:59:53;;;;;;;15.17;12.67;;;9.50;99.90;;;;;;5036473;28;20348;-84
2020/12/17 09:02:23;;;;;;;16.30;13.67;;;9.50;99.90;;;;;;5033061;28;20203;-79
2020/12/17 09:04:57;;;;;;;19.53;13.70;;;9.50;99.90;;;;;;5033159;28;20198;-85
2020/12/17 09:07:27;;;;;;;22.67;13.57;;;9.50;99.90;;;;;;5032847;28;20313;-86
2020/12/17 09:10:07;;;;;;;21.43;14.03;;;9.60;99.90;;;;;;5032246;28;20212;-82
2020/12/17 09:12:33;;;;;;;16.03;12.63;;;9.60;99.90;;;;;;5032698;28;20277;-86
2020/12/17 09:15:05;;;;;;;19.73;12.33;;;9.60;99.90;;;;;;5032669;28;20210;-86
2020/12/17 09:17:32;;;;;;;18.67;12.20;;;9.60;99.90;;;;;;5032464;28;20260;-85
2020/12/17 09:19:58;;;;;;;24.73;12.53;;;9.60;99.90;;;;;;5034425;28;20236;-86
2020/12/17 09:22:30;;;;;;;20.27;12.03;;;9.60;99.90;;;;;;5048678;28;20213;-84
2020/12/17 09:24:57;;;;;;;17.80;10.67;;;9.70;99.90;;;;;;5052123;28;20201;-81
2020/12/17 09:27:26;;;;;;;22.37;10.73;;;9.80;99.90;;;;;;5051689;28;20272;-86
2020/12/17 09:30:00;;;;;;;16.63;10.50;;;9.80;99.90;;;;;;5051696;28;20248;-86
2020/12/17 09:32:28;;;;;;;15.80;10.20;;;9.90;99.90;;;;;;5050936;28;20206;-86
2020/12/17 09:35:01;;;;;;;13.67;8.87;;;9.90;99.90;;;;;;5051066;28;20193;-83
2020/12/17 09:37:28;;;;;;;23.43;10.33;;;10.00;99.90;;;;;;5049850;28;20234;-87
2020/12/17 09:39:54;;;;;;;19.53;8.63;;;10.10;99.90;;;;;;5051379;28;20206;-89
2020/12/17 09:42:22;;;;;;;20.30;8.93;;;10.00;99.90;;;;;;5040518;28;20211;-88
2020/12/17 09:44:48;;;;;;;21.93;9.20;;;10.10;99.90;;;;;;5022083;28;20211;-83
2020/12/17 09:47:14;;;;;;;14.07;7.77;;;10.10;99.90;;;;;;5030015;28;20239;-87
2020/12/17 09:49:41;;;;;;;14.00;7.67;;;10.10;99.90;;;;;;5030992;28;20214;-88
2020/12/17 09:52:10;;;;;;;19.03;6.87;;;10.20;99.90;;;;;;5029315;28;20293;-88
2020/12/17 09:54:39;;;;;;;13.70;5.50;;;10.20;99.90;;;;;;5029356;28;20202;-87
2020/12/17 09:57:10;;;;;;;12.23;6.03;;;10.20;99.90;;;;;;5029562;28;20222;-86
2020/12/17 09:59:38;;;;;;;15.53;5.67;;;10.20;99.90;;;;;;5029635;28;20634;-81
2020/12/17 10:02:06;;;;;;;13.80;5.37;;;10.10;99.90;;;;;;5030138;28;20210;-78
2020/12/17 10:04:32;;;;;;;12.23;5.07;;;10.10;99.90;;;;;;5022809;28;20669;-79
2020/12/17 10:06:59;;;;;;;19.77;5.10;;;10.00;99.90;;;;;;5022210;28;20211;-78
2020/12/17 10:09:26;;;;;;;16.77;4.10;;;10.00;99.90;;;;;;5023204;28;20224;-81
2020/12/17 10:11:53;;;;;;;13.97;4.67;;;10.00;99.90;;;;;;5022839;28;20211;-87
2020/12/17 10:14:21;;;;;;;23.60;5.90;;;10.00;99.90;;;;;;5023237;28;20210;-78
2020/12/17 10:16:49;;;;;;;21.77;5.20;;;10.00;99.90;;;;;;5022218;28;20199;-78
2020/12/17 10:19:16;;;;;;;21.77;5.63;;;10.00;99.90;;;;;;5021135;28;20211;-79
2020/12/17 10:21:42;;;;;;;18.27;4.43;;;10.00;99.90;;;;;;5022306;28;20225;-84
2020/12/17 10:24:09;;;;;;;19.03;4.40;;;10.00;99.90;;;;;;5022261;28;20269;-81
2020/12/17 10:26:36;;;;;;;15.93;5.37;;;10.00;99.90;;;;;;5022123;28;20207;-77
2020/12/17 10:29:02;;;;;;;27.70;5.63;;;10.00;99.90;;;;;;5023354;28;20186;-76
2020/12/17 10:31:28;;;;;;;19.27;4.73;;;9.90;99.90;;;;;;5022496;28;20210;-77
2020/12/17 10:33:56;;;;;;;21.30;4.57;;;10.00;99.90;;;;;;5022131;28;20605;-78
2020/12/17 10:36:23;;;;;;;19.13;5.30;;;10.00;99.90;;;;;;5023123;28;20242;-77
2020/12/17 10:38:50;;;;;;;22.30;4.80;;;10.00;99.90;;;;;;5023306;28;20226;-77
2020/12/17 10:41:23;;;;;;;19.47;4.93;;;9.90;99.90;;;;;;5022770;28;20195;-78
2020/12/17 10:43:49;;;;;;;14.60;4.20;;;10.00;99.90;;;;;;5023430;28;20199;-77
2020/12/17 10:46:16;;;;;;;26.57;6.20;;;10.00;99.90;;;;;;5023039;28;20202;-77
2020/12/17 10:48:42;;;;;;;15.57;4.30;;;10.00;99.90;;;;;;5021952;28;20612;-77
2020/12/17 10:51:09;;;;;;;24.93;5.23;;;10.00;99.90;;;;;;5023125;28;21015;-76
2020/12/17 10:53:35;;;;;;;27.00;5.63;;;10.00;99.90;;;;;;5023313;28;20207;-78
2020/12/17 10:56:01;;;;;;;25.73;6.87;;;10.00;99.90;;;;;;5024350;28;20219;-77
2020/12/17 10:58:28;;;;;;;14.70;4.40;;;10.00;99.90;;;;;;5022770;28;20250;-82
2020/12/17 11:00:54;;;;;;;25.90;7.40;;;10.00;99.90;;;;;;5022458;28;20264;-78
2020/12/17 11:03:20;;;;;;;21.27;5.70;;;10.00;99.90;;;;;;5022825;28;20202;-88
2020/12/17 11:05:46;;;;;;;24.93;5.47;;;10.00;99.90;;;;;;5025360;28;20713;-78
2020/12/17 11:08:13;;;;;;;20.77;5.03;;;10.10;99.90;;;;;;5021441;28;20208;-78
2020/12/17 11:10:40;;;;;;;18.87;6.37;;;10.10;99.90;;;;;;5022926;28;20614;-79
2020/12/17 11:13:06;;;;;;;19.87;6.23;;;10.20;99.90;;;;;;5023200;28;20206;-77
2020/12/17 11:15:32;;;;;;;19.20;5.63;;;10.20;99.90;;;;;;5024307;28;20565;-79
2020/12/17 11:17:58;;;;;;;21.90;6.03;;;10.20;99.90;;;;;;5022825;28;20226;-78
2020/12/17 11:20:25;;;;;;;22.40;6.23;;;10.20;99.90;;;;;;5025679;28;20622;-78
2020/12/17 11:22:51;;;;;;;19.83;5.27;;;10.20;99.90;;;;;;5042704;28;20598;-84
2020/12/17 11:25:18;;;;;;;21.90;6.73;;;10.20;99.90;;;;;;5044380;28;20206;-82
2020/12/17 11:27:45;;;;;;;17.40;4.67;;;10.10;99.90;;;;;;5043886;28;20838;-79
2020/12/17 11:30:11;;;;;;;22.17;5.27;;;10.10;99.90;;;;;;5044490;28;20238;-80
2020/12/17 11:32:37;;;;;;;27.70;6.43;;;10.10;99.90;;;;;;5045750;28;20202;-82
2020/12/17 11:35:06;;;;;;;21.97;7.03;;;10.10;99.90;;;;;;5043404;28;20206;-79
2020/12/17 11:37:33;;;;;;;28.07;6.67;;;10.30;99.90;;;;;;5042728;28;20234;-80
2020/12/17 11:40:00;;;;;;;20.97;6.27;;;10.30;99.90;;;;;;5045002;28;20293;-80
2020/12/17 11:42:27;;;;;;;20.17;5.60;;;10.30;99.90;;;;;;5044866;28;20190;-80
2020/12/17 11:44:54;;;;;;;19.40;5.43;;;10.30;99.90;;;;;;5043459;28;20197;-84
2020/12/17 11:47:20;;;;;;;21.53;5.37;;;10.30;99.90;;;;;;5044084;28;20194;-81
2020/12/17 11:49:46;;;;;;;25.50;6.40;;;10.40;99.90;;;;;;5044892;28;20598;-80
2020/12/17 11:52:13;;;;;;;16.83;5.60;;;10.40;99.90;;;;;;5043258;28;20194;-80
2020/12/17 11:54:40;;;;;;;18.17;5.13;;;10.40;99.90;;;;;;5044777;28;20200;-88
2020/12/17 11:57:06;;;;;;;16.00;5.20;;;10.40;99.90;;;;;;5044028;28;20196;-80
2020/12/17 11:59:33;;;;;;;17.67;5.63;;;10.30;99.90;;;;;;5042322;28;20198;-79
2020/12/17 12:02:00;;;;;;;18.43;5.10;;;10.30;99.90;;;;;;5042883;28;20206;-82
2020/12/17 12:04:26;;;;;;;17.33;5.40;;;10.20;99.90;;;;;;5044091;28;20205;-86
2020/12/17 12:06:52;;;;;;;17.03;6.23;;;10.20;99.90;;;;;;5044252;28;20210;-80
2020/12/17 12:09:19;;;;;;;16.73;4.83;;;10.20;99.90;;;;;;5042609;28;20197;-80
2020/12/17 12:11:46;;;;;;;19.83;5.60;;;10.10;99.90;;;;;;5043989;28;20198;-80
2020/12/17 12:14:12;;;;;;;16.30;5.17;;;10.10;99.90;;;;;;5045128;28;20198;-89
2020/12/17 12:16:40;;;;;;;18.87;5.23;;;10.00;99.90;;;;;;5044577;28;20240;-83
2020/12/17 12:19:06;;;;;;;19.57;4.70;;;10.00;99.90;;;;;;5045050;28;20249;-86
2020/12/17 12:21:33;;;;;;;20.43;4.73;;;10.10;99.90;;;;;;5033915;28;20210;-84
2020/12/17 12:23:59;;;;;;;23.83;4.57;;;10.10;99.90;;;;;;5025464;28;20256;-82
2020/12/17 12:26:25;;;;;;;20.97;5.57;;;10.20;99.90;;;;;;5023481;28;20665;-81
2020/12/17 12:28:52;;;;;;;22.47;5.03;;;10.20;99.90;;;;;;5024251;28;20199;-80
2020/12/17 12:31:18;;;;;;;17.47;5.00;;;10.30;99.90;;;;;;5023845;28;20618;-80
2020/12/17 12:33:46;;;;;;;24.53;4.43;;;10.40;99.90;;;;;;5022602;28;20264;-80
2020/12/17 12:36:13;;;;;;;19.27;4.70;;;10.50;99.90;;;;;;5022793;28;20246;-88
2020/12/17 12:38:39;;;;;;;20.73;5.03;;;10.50;99.90;;;;;;5022566;28;20234;-79
2020/12/17 12:41:06;;;;;;;19.30;5.30;;;10.50;99.90;;;;;;5021840;28;20214;-87
2020/12/17 12:43:32;;;;;;;26.37;6.03;;;10.50;99.90;;;;;;5023425;28;20211;-80
2020/12/17 12:45:59;;;;;;;23.83;5.30;;;10.50;99.90;;;;;;5024089;28;20199;-78
2020/12/17 12:48:25;;;;;;;25.87;5.73;;;10.60;99.90;;;;;;5025834;28;20203;-86
2020/12/17 12:50:53;;;;;;;21.80;6.03;;;10.60;99.90;;;;;;5026179;28;20203;-82
2020/12/17 12:53:19;;;;;;;24.60;4.50;;;10.60;99.90;;;;;;5024386;28;20477;-85
2020/12/17 12:55:49;;;;;;;19.90;5.07;;;10.60;99.90;;;;;;5022897;28;20195;-86
2020/12/17 12:58:15;;;;;;;23.77;5.87;;;10.60;99.90;;;;;;5024107;28;20226;-82